createdAt,value
2019-01-17T00:02:45.428Z,21.70
2019-01-17T00:06:08.216Z,21.70
2019-01-17T00:09:12.457Z,21.70
2019-01-17T00:12:23.317Z,21.70
2019-01-17T00:15:33.366Z,21.70
2019-01-17T00:18:53.139Z,21.70
2019-01-17T00:22:03.573Z,21.70
2019-01-17T00:25:13.421Z,21.70
2019-01-17T00:28:21.987Z,21.70
2019-01-17T00:31:38.604Z,21.70
2019-01-17T00:35:04.177Z,21.70
2019-01-17T00:38:14.766Z,21.70
2019-01-17T00:41:33.943Z,21.70
2019-01-17T00:44:53.380Z,21.70
2019-01-17T00:48:07.280Z,21.70
2019-01-17T00:51:17.999Z,21.70
2019-01-17T00:54:27.258Z,21.70
2019-01-17T00:57:52.466Z,21.70
2019-01-17T01:01:08.751Z,21.70
2019-01-17T01:04:17.388Z,21.70
2019-01-17T01:07:27.232Z,21.70
2019-01-17T01:10:50.319Z,21.70
2019-01-17T01:14:03.513Z,21.70
2019-01-17T01:17:19.135Z,21.70
2019-01-17T01:20:40.110Z,21.70
2019-01-17T01:24:06.552Z,21.70
2019-01-17T01:27:17.010Z,21.70
2019-01-17T01:30:32.555Z,21.60
2019-01-17T01:33:38.497Z,21.60
2019-01-17T01:36:47.706Z,21.60
2019-01-17T01:40:13.602Z,21.60
2019-01-17T01:43:32.672Z,21.60
2019-01-17T01:46:42.215Z,21.60
2019-01-17T01:49:52.699Z,21.60
2019-01-17T01:52:48.999Z,21.60
2019-01-17T01:55:41.206Z,21.60
2019-01-17T01:58:33.216Z,21.60
2019-01-17T02:01:25.212Z,21.60
2019-01-17T02:04:17.293Z,21.60
2019-01-17T02:07:09.409Z,21.60
2019-01-17T02:10:01.269Z,21.60
2019-01-17T02:12:53.029Z,21.60
2019-01-17T02:15:44.773Z,21.60
2019-01-17T02:18:38.316Z,21.60
2019-01-17T02:21:30.705Z,21.60
2019-01-17T02:24:28.385Z,21.60
2019-01-17T02:27:17.189Z,21.60
2019-01-17T02:30:09.764Z,21.60
2019-01-17T02:33:02.901Z,21.60
2019-01-17T02:35:55.640Z,21.60
2019-01-17T02:38:48.420Z,21.60
2019-01-17T02:41:40.713Z,21.60
2019-01-17T02:44:32.929Z,21.60
2019-01-17T02:47:25.152Z,21.60
2019-01-17T02:50:17.491Z,21.60
2019-01-17T02:53:09.944Z,21.60
2019-01-17T02:56:02.582Z,21.50
2019-01-17T02:58:55.391Z,21.60
2019-01-17T03:01:47.958Z,21.60
2019-01-17T03:04:40.357Z,21.50
2019-01-17T03:07:32.936Z,21.60
2019-01-17T03:10:25.537Z,21.60
2019-01-17T03:13:17.912Z,21.60
2019-01-17T03:16:10.460Z,21.60
2019-01-17T03:19:02.902Z,21.50
2019-01-17T03:21:55.078Z,21.50
2019-01-17T03:24:47.597Z,21.50
2019-01-17T03:27:40.362Z,21.50
2019-01-17T03:30:33.061Z,21.50
2019-01-17T03:33:25.578Z,21.50
2019-01-17T03:36:18.499Z,21.50
2019-01-17T03:39:10.825Z,21.50
2019-01-17T03:42:03.326Z,21.50
2019-01-17T03:44:56.668Z,21.50
2019-01-17T03:47:49.174Z,21.50
2019-01-17T03:50:41.634Z,21.50
2019-01-17T03:53:33.861Z,21.50
2019-01-17T03:56:27.215Z,21.50
2019-01-17T03:59:19.189Z,21.50
2019-01-17T04:02:11.428Z,21.50
2019-01-17T04:05:03.859Z,21.50
2019-01-17T04:07:55.914Z,21.50
2019-01-17T04:10:48.169Z,21.50
2019-01-17T04:13:40.625Z,21.50
2019-01-17T04:16:32.809Z,21.50
2019-01-17T04:19:24.909Z,21.50
2019-01-17T04:22:17.570Z,21.50
2019-01-17T04:25:10.326Z,21.50
2019-01-17T04:28:02.488Z,21.50
2019-01-17T04:30:55.254Z,21.50
2019-01-17T04:33:47.515Z,21.50
2019-01-17T04:36:39.744Z,21.50
2019-01-17T04:39:31.906Z,21.50
2019-01-17T04:42:23.968Z,21.50
2019-01-17T04:45:16.680Z,21.50
2019-01-17T04:48:08.860Z,21.50
2019-01-17T04:51:01.637Z,21.50
2019-01-17T04:53:53.887Z,21.50
2019-01-17T04:56:46.454Z,21.50
2019-01-17T04:59:38.977Z,21.60
2019-01-17T05:02:31.533Z,21.50
2019-01-17T05:05:24.852Z,21.50
2019-01-17T05:21:57.312Z,21.50
2019-01-17T05:24:53.618Z,21.50
2019-01-17T05:27:46.448Z,21.50
2019-01-17T05:30:41.762Z,21.50
2019-01-17T05:33:37.374Z,21.50
2019-01-17T05:36:30.454Z,21.50
2019-01-17T05:39:27.806Z,21.60
2019-01-17T05:42:24.480Z,21.60
2019-01-17T05:45:22.240Z,21.60
2019-01-17T05:48:15.544Z,21.60
2019-01-17T05:51:07.759Z,21.60
2019-01-17T05:54:00.723Z,21.60
2019-01-17T05:56:56.543Z,21.60
2019-01-17T05:59:54.169Z,21.60
2019-01-17T06:02:50.206Z,21.60
2019-01-17T06:05:47.383Z,21.60
2019-01-17T06:08:40.665Z,21.60
2019-01-17T06:11:35.078Z,21.60
2019-01-17T06:14:28.649Z,21.60
2019-01-17T06:17:22.624Z,21.60
2019-01-17T06:20:20.442Z,21.60
2019-01-17T06:23:14.131Z,21.60
2019-01-17T06:26:06.664Z,21.60
2019-01-17T06:28:58.652Z,21.60
2019-01-17T06:31:53.872Z,21.60
2019-01-17T06:34:46.436Z,21.70
2019-01-17T06:37:40.789Z,21.70
2019-01-17T06:40:34.218Z,21.70
2019-01-17T06:43:26.836Z,21.70
2019-01-17T06:46:19.157Z,21.70
2019-01-17T06:49:11.357Z,21.70
2019-01-17T06:52:03.538Z,21.70
2019-01-17T06:54:56.171Z,21.70
2019-01-17T06:57:48.370Z,21.70
2019-01-17T07:00:40.334Z,21.70
2019-01-17T07:03:32.489Z,21.70
2019-01-17T07:06:25.720Z,21.70
2019-01-17T07:09:17.722Z,21.70
2019-01-17T07:12:10.149Z,21.70
2019-01-17T07:15:03.145Z,21.70
2019-01-17T07:18:03.361Z,21.70
2019-01-17T07:20:59.263Z,21.70
2019-01-17T07:23:53.224Z,21.70
2019-01-17T07:26:47.355Z,21.80
2019-01-17T07:29:40.165Z,21.80
2019-01-17T07:32:33.582Z,21.80
2019-01-17T07:35:27.173Z,21.80
2019-01-17T07:38:19.994Z,21.80
2019-01-17T07:41:12.782Z,21.80
2019-01-17T07:44:05.054Z,21.80
2019-01-17T07:46:58.500Z,21.80
2019-01-17T07:49:51.387Z,21.80
2019-01-17T07:52:44.326Z,21.80
2019-01-17T07:55:36.955Z,21.80
2019-01-17T07:58:29.827Z,21.80
2019-01-17T08:01:23.717Z,21.80
2019-01-17T08:04:19.855Z,21.80
2019-01-17T08:07:12.312Z,21.80
2019-01-17T08:10:04.928Z,21.80
2019-01-17T08:12:57.787Z,21.90
2019-01-17T08:15:50.642Z,21.90
2019-01-17T08:18:43.276Z,21.90
2019-01-17T08:21:37.118Z,21.80
2019-01-17T08:24:29.555Z,21.90
2019-01-17T08:27:22.297Z,21.90
2019-01-17T08:30:20.022Z,21.90
2019-01-17T08:33:13.367Z,21.90
2019-01-17T08:36:06.136Z,21.90
2019-01-17T08:38:59.045Z,21.90
2019-01-17T08:41:53.566Z,21.90
2019-01-17T08:44:46.819Z,21.90
2019-01-17T08:47:40.874Z,21.90
2019-01-17T08:50:33.872Z,22.00
2019-01-17T08:53:26.875Z,22.00
2019-01-17T08:56:19.973Z,22.00
2019-01-17T08:59:12.881Z,22.00
2019-01-17T09:02:05.578Z,21.90
2019-01-17T09:04:58.860Z,22.00
2019-01-17T09:07:51.338Z,22.00
2019-01-17T09:10:43.835Z,22.00
2019-01-17T09:13:36.806Z,22.00
2019-01-17T09:16:29.304Z,22.00
2019-01-17T09:19:21.697Z,22.00
2019-01-17T09:22:14.674Z,22.00
2019-01-17T09:25:08.197Z,22.00
2019-01-17T09:28:02.051Z,22.00
2019-01-17T09:30:56.440Z,22.00
2019-01-17T09:33:51.125Z,22.00
2019-01-17T09:36:45.959Z,22.00
2019-01-17T09:39:39.963Z,22.10
2019-01-17T09:42:33.860Z,22.00
2019-01-17T09:45:28.392Z,22.10
2019-01-17T09:48:22.073Z,22.10
2019-01-17T09:51:15.801Z,22.10
2019-01-17T09:54:14.221Z,22.10
2019-01-17T09:57:09.049Z,22.10
2019-01-17T10:00:02.644Z,22.10
2019-01-17T10:02:59.550Z,22.10
2019-01-17T10:05:53.661Z,22.10
2019-01-17T10:08:47.985Z,22.20
2019-01-17T10:11:49.454Z,22.20
2019-01-17T10:14:48.951Z,22.10
2019-01-17T10:18:03.190Z,22.20
2019-01-17T10:21:09.423Z,22.20
2019-01-17T10:24:18.922Z,22.20
2019-01-17T10:27:18.155Z,22.20
2019-01-17T10:30:47.677Z,22.20
2019-01-17T10:34:01.841Z,22.20
2019-01-17T10:37:27.835Z,22.20
2019-01-17T10:40:36.939Z,22.20
2019-01-17T10:43:36.119Z,22.20
2019-01-17T10:46:45.756Z,22.20
2019-01-17T10:50:02.999Z,22.30
2019-01-17T10:52:58.934Z,22.30
2019-01-17T10:56:12.292Z,22.30
2019-01-17T10:59:28.111Z,22.30
2019-01-17T11:02:50.772Z,22.30
2019-01-17T11:06:14.549Z,22.30
2019-01-17T11:09:32.494Z,22.30
2019-01-17T11:12:52.831Z,22.30
2019-01-17T11:15:51.871Z,22.30
2019-01-17T11:18:59.224Z,22.30
2019-01-17T11:22:22.412Z,22.30
2019-01-17T11:25:44.891Z,22.30
2019-01-17T11:28:42.521Z,22.30
2019-01-17T11:31:56.132Z,22.40
2019-01-17T11:34:59.606Z,22.40
2019-01-17T11:37:56.940Z,22.40
2019-01-17T11:40:56.814Z,22.40
2019-01-17T11:44:08.516Z,22.40
2019-01-17T11:47:07.975Z,22.40
2019-01-17T11:50:32.139Z,22.40
2019-01-17T11:53:32.276Z,22.40
2019-01-17T11:56:30.588Z,22.40
2019-01-17T11:59:44.547Z,22.50
2019-01-17T12:03:08.581Z,22.40
2019-01-17T12:06:03.129Z,22.40
2019-01-17T12:08:56.813Z,22.50
2019-01-17T12:11:54.655Z,22.50
2019-01-17T12:14:52.166Z,22.50
2019-01-17T12:17:46.751Z,22.50
2019-01-17T12:20:41.444Z,22.50
2019-01-17T12:23:34.444Z,22.50
2019-01-17T12:26:26.892Z,22.60
2019-01-17T12:29:19.794Z,22.50
2019-01-17T12:32:12.275Z,22.50
2019-01-17T12:35:17.810Z,22.60
2019-01-17T12:38:14.425Z,22.50
2019-01-17T12:41:07.288Z,22.50
2019-01-17T12:44:01.791Z,22.50
2019-01-17T12:46:55.905Z,22.60
2019-01-17T12:49:51.128Z,22.60
2019-01-17T12:52:44.980Z,22.60
2019-01-17T12:55:40.504Z,22.60
2019-01-17T12:58:35.716Z,22.60
2019-01-17T13:01:28.206Z,22.60
2019-01-17T13:04:22.032Z,22.60
2019-01-17T13:07:15.082Z,22.60
2019-01-17T13:10:07.951Z,22.60
2019-01-17T13:12:59.947Z,22.60
2019-01-17T13:15:52.591Z,22.60
2019-01-17T13:18:44.610Z,22.70
2019-01-17T13:21:36.656Z,22.70
2019-01-17T13:24:29.098Z,22.60
2019-01-17T13:27:21.678Z,22.60
2019-01-17T13:30:15.775Z,22.60
2019-01-17T13:33:07.993Z,22.60
2019-01-17T13:35:59.799Z,22.60
2019-01-17T13:38:52.300Z,22.70
2019-01-17T13:41:44.542Z,22.60
2019-01-17T13:44:36.629Z,22.60
2019-01-17T13:47:28.850Z,22.60
2019-01-17T13:50:21.105Z,22.60
2019-01-17T13:53:13.563Z,22.60
2019-01-17T13:56:05.543Z,22.60
2019-01-17T13:58:57.953Z,22.70
2019-01-17T14:01:50.739Z,22.60
2019-01-17T14:04:43.071Z,22.60
2019-01-17T14:07:35.415Z,22.60
2019-01-17T14:10:27.906Z,22.60
2019-01-17T14:13:20.078Z,22.60
2019-01-17T14:16:13.070Z,22.60
2019-01-17T14:19:05.550Z,22.60
2019-01-17T14:21:58.054Z,22.60
2019-01-17T14:24:50.958Z,22.60
2019-01-17T14:27:43.288Z,22.60
2019-01-17T14:30:35.956Z,22.60
2019-01-17T14:33:28.192Z,22.60
2019-01-17T14:36:21.255Z,22.60
2019-01-17T14:39:13.530Z,22.60
2019-01-17T14:42:06.125Z,22.60
2019-01-17T14:44:58.175Z,22.60
2019-01-17T14:47:50.580Z,22.60
2019-01-17T14:50:42.652Z,22.60
2019-01-17T14:53:35.229Z,22.60
2019-01-17T14:56:27.573Z,22.60
2019-01-17T14:59:19.652Z,22.60
2019-01-17T15:02:11.819Z,22.50
2019-01-17T15:05:03.934Z,22.50
2019-01-17T15:07:56.037Z,22.50
2019-01-17T15:10:48.359Z,22.50
2019-01-17T15:13:41.487Z,22.50
2019-01-17T15:16:34.543Z,22.50
2019-01-17T15:19:27.020Z,22.50
2019-01-17T15:22:19.222Z,22.50
2019-01-17T15:25:12.451Z,22.50
2019-01-17T15:28:05.834Z,22.60
2019-01-17T15:30:58.490Z,22.50
2019-01-17T15:33:51.235Z,22.50
2019-01-17T15:36:43.666Z,22.50
2019-01-17T15:39:35.969Z,22.50
2019-01-17T15:42:28.617Z,22.50
2019-01-17T15:45:21.140Z,22.60
2019-01-17T15:48:13.581Z,22.60
2019-01-17T15:51:06.081Z,22.60
2019-01-17T15:54:02.762Z,22.50
2019-01-17T15:56:55.570Z,22.50
2019-01-17T15:59:48.518Z,22.50
2019-01-17T16:02:41.961Z,22.50
2019-01-17T16:05:34.394Z,22.50
2019-01-17T16:08:28.688Z,22.50
2019-01-17T16:11:21.623Z,22.50
2019-01-17T16:14:16.063Z,22.50
2019-01-17T16:17:08.479Z,22.50
2019-01-17T16:20:01.669Z,22.50
2019-01-17T16:22:54.171Z,22.50
2019-01-17T16:25:46.347Z,22.50
2019-01-17T16:28:38.823Z,22.40
2019-01-17T16:31:31.243Z,22.50
2019-01-17T16:34:23.321Z,22.50
2019-01-17T16:37:15.715Z,22.40
2019-01-17T16:40:08.226Z,22.50
2019-01-17T16:43:00.741Z,22.50
2019-01-17T16:45:52.544Z,22.40
2019-01-17T16:48:45.371Z,22.40
2019-01-17T16:51:37.734Z,22.40
2019-01-17T16:54:30.048Z,22.40
2019-01-17T16:57:22.580Z,22.40
2019-01-17T17:00:17.203Z,22.50
2019-01-17T17:03:09.907Z,22.50
2019-01-17T17:06:02.381Z,22.40
2019-01-17T17:08:54.895Z,22.40
2019-01-17T17:11:47.116Z,22.40
2019-01-17T17:14:39.515Z,22.40
2019-01-17T17:17:31.794Z,22.40
2019-01-17T17:20:24.361Z,22.40
2019-01-17T17:23:16.845Z,22.40
2019-01-17T17:26:09.340Z,22.40
2019-01-17T17:29:01.575Z,22.40
2019-01-17T17:31:53.862Z,22.40
2019-01-17T17:34:46.169Z,22.40
2019-01-17T17:37:38.471Z,22.40
2019-01-17T17:40:34.112Z,22.40
2019-01-17T17:43:26.340Z,22.40
2019-01-17T17:46:18.254Z,22.40
2019-01-17T17:49:10.299Z,22.40
2019-01-17T17:52:02.340Z,22.40
2019-01-17T17:54:54.626Z,22.40
2019-01-17T17:57:46.869Z,22.40
2019-01-17T18:00:44.905Z,22.40
2019-01-17T18:03:37.156Z,22.40
2019-01-17T18:06:29.328Z,22.40
2019-01-17T18:09:21.899Z,22.40
2019-01-17T18:12:14.408Z,22.40
2019-01-17T18:15:07.094Z,22.40
2019-01-17T18:17:59.503Z,22.40
2019-01-17T18:20:51.887Z,22.30
2019-01-17T18:23:44.330Z,22.30
2019-01-17T18:26:37.179Z,22.40
2019-01-17T18:29:29.829Z,22.40
2019-01-17T18:32:22.101Z,22.40
2019-01-17T18:35:14.434Z,22.30
2019-01-17T18:38:06.610Z,22.40
2019-01-17T18:40:59.051Z,22.30
2019-01-17T18:43:51.352Z,22.30
2019-01-17T18:46:43.468Z,22.30
2019-01-17T18:49:35.522Z,22.30
2019-01-17T18:52:27.615Z,22.30
2019-01-17T18:55:19.913Z,22.30
2019-01-17T18:58:15.499Z,22.30
2019-01-17T19:01:05.530Z,22.30
2019-01-17T19:03:57.553Z,22.30
2019-01-17T19:06:49.873Z,22.30
2019-01-17T19:09:42.170Z,22.30
2019-01-17T19:12:34.287Z,22.30
2019-01-17T19:15:27.520Z,22.30
2019-01-17T19:18:19.873Z,22.30
2019-01-17T19:21:11.969Z,22.30
2019-01-17T19:24:04.189Z,22.30
2019-01-17T19:26:56.508Z,22.30
2019-01-17T19:29:48.561Z,22.30
2019-01-17T19:32:40.962Z,22.30
2019-01-17T19:35:33.306Z,22.30
2019-01-17T19:38:25.274Z,22.30
2019-01-17T19:41:17.445Z,22.30
2019-01-17T19:44:09.721Z,22.30
2019-01-17T19:47:01.966Z,22.30
2019-01-17T19:49:54.326Z,22.30
2019-01-17T19:52:46.625Z,22.20
2019-01-17T19:55:38.857Z,22.30
2019-01-17T19:58:31.114Z,22.30
2019-01-17T20:01:23.408Z,22.30
2019-01-17T20:04:15.770Z,22.30
2019-01-17T20:07:08.160Z,22.30
2019-01-17T20:10:00.464Z,22.20
2019-01-17T20:12:52.884Z,22.20
2019-01-17T20:15:44.859Z,22.20
2019-01-17T20:18:37.196Z,22.20
2019-01-17T20:21:29.659Z,22.20
2019-01-17T20:24:21.662Z,22.20
2019-01-17T20:27:13.822Z,22.20
2019-01-17T20:30:07.163Z,22.20
2019-01-17T20:33:00.003Z,22.20
2019-01-17T20:35:52.142Z,22.20
2019-01-17T20:38:44.096Z,22.20
2019-01-17T20:41:36.170Z,22.20
2019-01-17T20:44:28.532Z,22.20
2019-01-17T20:47:20.485Z,22.20
2019-01-17T20:50:14.097Z,22.20
2019-01-17T20:53:06.134Z,22.20
2019-01-17T20:55:58.536Z,22.20
2019-01-17T20:58:51.002Z,22.20
2019-01-17T21:01:46.717Z,22.20
2019-01-17T21:04:38.910Z,22.20
2019-01-17T21:07:31.359Z,22.10
2019-01-17T21:10:23.702Z,22.20
2019-01-17T21:13:15.633Z,22.20
2019-01-17T21:16:07.960Z,22.20
2019-01-17T21:18:59.933Z,22.10
2019-01-17T21:21:52.366Z,22.10
2019-01-17T21:24:44.656Z,22.20
2019-01-17T21:27:37.061Z,22.20
2019-01-17T21:30:29.409Z,22.10
2019-01-17T21:33:21.667Z,22.20
2019-01-17T21:36:14.057Z,22.20
2019-01-17T21:39:07.715Z,22.20
2019-01-17T21:41:59.892Z,22.10
2019-01-17T21:44:52.137Z,22.10
2019-01-17T21:47:44.393Z,22.10
2019-01-17T21:50:36.604Z,22.10
2019-01-17T21:53:29.003Z,22.10
2019-01-17T21:56:21.202Z,22.10
2019-01-17T21:59:13.329Z,22.10
2019-01-17T22:02:05.701Z,22.10
2019-01-17T22:04:57.857Z,22.10
2019-01-17T22:07:52.095Z,22.10
2019-01-17T22:10:44.574Z,22.10
2019-01-17T22:13:36.638Z,22.10
2019-01-17T22:16:28.721Z,22.10
2019-01-17T22:19:20.789Z,22.10
2019-01-17T22:22:12.944Z,22.10
2019-01-17T22:25:05.312Z,22.10
2019-01-17T22:27:57.346Z,22.10
2019-01-17T22:30:49.397Z,22.10
2019-01-17T22:33:41.384Z,22.10
2019-01-17T22:36:34.031Z,22.10
2019-01-17T22:39:26.230Z,22.10
2019-01-17T22:42:18.165Z,22.10
2019-01-17T22:45:11.689Z,22.10
2019-01-17T22:48:03.740Z,22.00
2019-01-17T22:50:55.761Z,22.10
2019-01-17T22:53:47.717Z,22.00
2019-01-17T22:56:40.059Z,22.00
2019-01-17T22:59:32.466Z,22.00
2019-01-17T23:02:24.504Z,22.00
2019-01-17T23:05:16.574Z,22.00
2019-01-17T23:08:08.916Z,22.00
2019-01-17T23:11:01.223Z,22.00
2019-01-17T23:13:53.249Z,22.00
2019-01-17T23:16:46.525Z,22.00
2019-01-17T23:19:38.476Z,22.00
2019-01-17T23:22:30.269Z,22.00
2019-01-17T23:25:22.314Z,22.00
2019-01-17T23:28:14.538Z,22.00
2019-01-17T23:31:06.675Z,22.00
2019-01-17T23:33:59.060Z,22.00
2019-01-17T23:36:51.378Z,22.00
2019-01-17T23:39:43.350Z,22.00
2019-01-17T23:42:35.280Z,22.00
2019-01-17T23:45:27.547Z,22.00
2019-01-17T23:48:19.602Z,22.00
2019-01-17T23:51:12.112Z,22.00
2019-01-17T23:54:04.267Z,22.00
2019-01-17T23:56:56.828Z,21.90
2019-01-17T23:59:49.492Z,22.00
